createdAt,value
2019-05-13T00:01:43.401Z,7.80
2019-05-13T00:04:14.129Z,6.47
2019-05-13T00:06:51.331Z,7.90
2019-05-13T00:09:14.198Z,9.63
2019-05-13T00:11:43.793Z,6.83
2019-05-13T00:14:13.457Z,6.73
2019-05-13T00:16:44.798Z,5.10
2019-05-13T00:19:14.218Z,7.90
2019-05-13T00:21:44.465Z,6.23
2019-05-13T00:24:13.863Z,6.07
2019-05-13T00:26:44.425Z,7.63
2019-05-13T00:29:14.186Z,7.17
2019-05-13T00:31:43.863Z,7.07
2019-05-13T00:34:14.338Z,6.90
2019-05-13T00:36:44.542Z,7.80
2019-05-13T00:39:15.327Z,10.57
2019-05-13T00:41:44.317Z,9.60
2019-05-13T00:44:14.266Z,7.13
2019-05-13T00:46:44.101Z,6.83
2019-05-13T00:49:13.482Z,8.07
2019-05-13T00:51:44.422Z,8.17
2019-05-13T00:54:13.461Z,9.20
2019-05-13T00:56:43.617Z,9.00
2019-05-13T00:59:14.244Z,7.27
2019-05-13T01:01:44.111Z,7.47
2019-05-13T01:04:14.359Z,10.03
2019-05-13T01:06:43.667Z,8.67
2019-05-13T01:09:14.469Z,9.17
2019-05-13T01:11:43.769Z,9.57
2019-05-13T01:14:14.355Z,10.87
2019-05-13T01:16:44.274Z,9.30
2019-05-13T01:19:14.392Z,10.10
2019-05-13T01:21:43.551Z,11.60
2019-05-13T01:24:14.368Z,9.40
2019-05-13T01:26:43.801Z,10.70
2019-05-13T01:29:13.497Z,11.10
2019-05-13T01:31:43.490Z,9.20
2019-05-13T01:34:14.309Z,10.57
2019-05-13T01:36:44.663Z,11.77
2019-05-13T01:39:14.044Z,11.17
2019-05-13T01:41:43.822Z,14.27
2019-05-13T01:44:14.007Z,10.43
2019-05-13T01:46:43.713Z,10.77
2019-05-13T01:49:13.630Z,12.93
2019-05-13T01:51:43.988Z,10.80
2019-05-13T01:54:14.288Z,10.00
2019-05-13T01:56:45.085Z,9.93
2019-05-13T01:59:15.174Z,10.87
2019-05-13T02:01:44.377Z,11.73
2019-05-13T02:04:14.168Z,9.10
2019-05-13T02:06:44.315Z,14.57
2019-05-13T02:09:14.149Z,11.73
2019-05-13T02:11:44.582Z,11.83
2019-05-13T02:14:13.923Z,11.23
2019-05-13T02:16:44.514Z,12.90
2019-05-13T02:19:14.310Z,11.13
2019-05-13T02:21:43.867Z,11.87
2019-05-13T02:24:14.524Z,11.57
2019-05-13T02:26:43.891Z,12.97
2019-05-13T02:29:14.343Z,15.47
2019-05-13T02:31:51.698Z,16.83
2019-05-13T02:34:14.380Z,14.90
2019-05-13T02:36:43.992Z,14.50
2019-05-13T02:39:13.260Z,14.50
2019-05-13T02:41:43.191Z,14.57
2019-05-13T02:44:12.585Z,13.50
2019-05-13T02:46:44.329Z,14.33
2019-05-13T02:49:12.293Z,16.40
2019-05-13T02:51:42.873Z,14.50
2019-05-13T02:54:12.554Z,15.03
2019-05-13T02:56:42.423Z,13.27
2019-05-13T02:59:13.147Z,14.70
2019-05-13T03:01:43.193Z,12.90
2019-05-13T03:04:13.162Z,15.97
2019-05-13T03:06:43.536Z,14.23
2019-05-13T03:09:13.097Z,13.73
2019-05-13T03:11:42.581Z,13.63
2019-05-13T03:14:12.823Z,16.67
2019-05-13T03:16:52.584Z,15.67
2019-05-13T03:19:22.477Z,15.50
2019-05-13T03:21:54.532Z,15.77
2019-05-13T03:24:23.542Z,14.73
2019-05-13T03:26:53.410Z,17.57
2019-05-13T03:29:22.703Z,17.73
2019-05-13T03:31:55.920Z,17.30
2019-05-13T03:34:26.199Z,16.97
2019-05-13T03:36:56.876Z,15.43
2019-05-13T03:39:24.910Z,14.17
2019-05-13T03:41:56.142Z,14.00
2019-05-13T03:44:27.637Z,15.07
2019-05-13T03:46:58.289Z,16.77
2019-05-13T03:49:32.315Z,15.83
2019-05-13T03:52:02.972Z,13.77
2019-05-13T03:54:32.967Z,15.33
2019-05-13T03:57:03.513Z,19.67
2019-05-13T03:59:33.513Z,15.90
2019-05-13T04:02:02.935Z,17.03
2019-05-13T04:04:32.658Z,19.07
2019-05-13T04:07:02.823Z,19.97
2019-05-13T04:09:36.152Z,17.33
2019-05-13T04:12:03.537Z,19.93
2019-05-13T04:14:33.740Z,21.60
2019-05-13T04:17:03.239Z,20.87
2019-05-13T04:19:33.794Z,16.93
2019-05-13T04:22:03.142Z,16.20
2019-05-13T04:24:33.559Z,20.20
2019-05-13T04:27:03.357Z,18.30
2019-05-13T04:29:33.410Z,18.17
2019-05-13T04:32:03.006Z,18.70
2019-05-13T04:34:33.792Z,18.27
2019-05-13T04:37:02.737Z,19.63
2019-05-13T04:39:44.636Z,20.33
2019-05-13T04:42:02.824Z,17.97
2019-05-13T04:44:32.517Z,19.17
2019-05-13T04:47:03.578Z,19.43
2019-05-13T04:49:32.831Z,21.13
2019-05-13T04:52:03.362Z,19.17
2019-05-13T04:54:33.389Z,17.83
2019-05-13T04:57:03.409Z,19.77
2019-05-13T04:59:34.043Z,17.90
2019-05-13T05:02:13.941Z,21.50
2019-05-13T05:04:52.701Z,19.30
2019-05-13T05:08:17.357Z,19.83
2019-05-13T05:11:22.486Z,17.53
2019-05-13T05:14:18.787Z,20.87
2019-05-13T05:17:02.932Z,19.77
2019-05-13T05:20:03.552Z,16.70
2019-05-13T05:22:51.938Z,20.70
2019-05-13T05:25:33.646Z,23.93
2019-05-13T05:28:13.997Z,18.07
2019-05-13T05:31:06.303Z,19.10
2019-05-13T05:33:56.095Z,17.37
2019-05-13T05:37:04.768Z,16.70
2019-05-13T05:39:33.686Z,18.50
2019-05-13T05:42:03.815Z,18.47
2019-05-13T05:44:32.920Z,19.27
2019-05-13T05:47:03.392Z,16.27
2019-05-13T05:49:32.420Z,20.40
2019-05-13T05:52:03.986Z,16.07
2019-05-13T05:54:35.303Z,16.53
2019-05-13T05:57:06.771Z,25.07
2019-05-13T05:59:38.084Z,15.40
2019-05-13T06:02:08.355Z,18.53
2019-05-13T06:04:37.518Z,13.67
2019-05-13T06:07:06.496Z,13.90
2019-05-13T06:09:37.803Z,13.87
2019-05-13T06:12:06.595Z,14.70
2019-05-13T06:14:35.649Z,10.60
2019-05-13T06:17:04.523Z,13.33
2019-05-13T06:19:33.724Z,13.27
2019-05-13T06:22:02.842Z,13.37
2019-05-13T06:24:33.260Z,12.73
2019-05-13T06:27:02.444Z,12.50
2019-05-13T06:29:31.852Z,12.40
2019-05-13T06:32:15.217Z,10.80
2019-05-13T06:34:32.624Z,11.43
2019-05-13T06:37:02.624Z,13.33
2019-05-13T06:39:31.965Z,12.83
2019-05-13T06:42:02.795Z,10.97
2019-05-13T06:44:31.961Z,13.73
2019-05-13T06:47:02.546Z,13.93
2019-05-13T06:49:32.333Z,10.83
2019-05-13T06:52:02.040Z,10.93
2019-05-13T06:54:33.099Z,9.73
2019-05-13T06:57:04.342Z,9.33
2019-05-13T06:59:32.231Z,10.10
2019-05-13T07:02:02.207Z,10.13
2019-05-13T07:04:32.586Z,9.07
2019-05-13T07:07:12.276Z,11.10
2019-05-13T07:09:32.894Z,16.77
2019-05-13T07:12:03.211Z,15.20
2019-05-13T07:14:32.735Z,9.50
2019-05-13T07:17:02.168Z,8.17
2019-05-13T07:19:32.561Z,16.10
2019-05-13T07:22:02.663Z,13.87
2019-05-13T07:24:32.456Z,11.00
2019-05-13T07:27:02.182Z,7.83
2019-05-13T07:29:32.529Z,15.43
2019-05-13T07:32:02.275Z,9.90
2019-05-13T07:34:33.485Z,13.67
2019-05-13T07:37:02.689Z,8.03
2019-05-13T07:39:32.796Z,10.13
2019-05-13T07:42:05.218Z,12.87
2019-05-13T07:44:32.749Z,9.80
2019-05-13T07:47:03.492Z,9.77
2019-05-13T07:49:32.271Z,9.37
2019-05-13T07:52:01.925Z,12.20
2019-05-13T07:54:32.912Z,16.53
2019-05-13T07:57:02.127Z,14.93
2019-05-13T07:59:32.027Z,10.80
2019-05-13T08:02:02.431Z,8.63
2019-05-13T08:04:33.361Z,9.90
2019-05-13T08:07:02.551Z,9.43
2019-05-13T08:09:32.211Z,8.03
2019-05-13T08:12:10.168Z,8.10
2019-05-13T08:14:33.144Z,9.23
2019-05-13T08:17:02.871Z,8.57
2019-05-13T08:19:32.808Z,10.83
2019-05-13T08:22:02.536Z,7.40
2019-05-13T08:24:31.857Z,9.40
2019-05-13T08:27:02.065Z,11.17
2019-05-13T08:29:32.684Z,8.33
2019-05-13T08:32:03.035Z,9.67
2019-05-13T08:34:33.078Z,9.43
2019-05-13T08:37:03.214Z,7.20
2019-05-13T08:39:38.098Z,8.20
2019-05-13T08:42:15.101Z,10.50
2019-05-13T08:44:33.706Z,10.67
2019-05-13T08:47:03.318Z,7.87
2019-05-13T08:49:32.854Z,8.17
2019-05-13T08:52:02.201Z,8.40
2019-05-13T08:54:32.795Z,7.40
2019-05-13T08:57:02.946Z,7.20
2019-05-13T08:59:33.619Z,9.37
2019-05-13T09:02:03.317Z,12.27
2019-05-13T09:04:32.581Z,11.60
2019-05-13T09:07:02.411Z,12.13
2019-05-13T09:09:31.969Z,4.40
2019-05-13T09:12:02.609Z,7.00
2019-05-13T09:14:32.521Z,7.17
2019-05-13T09:17:02.155Z,6.53
2019-05-13T09:19:32.219Z,7.53
2019-05-13T09:22:03.134Z,6.90
2019-05-13T09:24:37.133Z,7.40
2019-05-13T09:27:02.637Z,8.13
2019-05-13T09:29:32.433Z,8.73
2019-05-13T09:32:03.792Z,7.00
2019-05-13T09:34:32.955Z,4.43
2019-05-13T09:37:02.768Z,7.07
2019-05-13T09:39:32.390Z,10.73
2019-05-13T09:42:02.925Z,7.70
2019-05-13T09:44:33.209Z,5.95
2019-05-13T09:47:02.712Z,10.30
2019-05-13T09:49:32.771Z,8.07
2019-05-13T09:52:02.590Z,6.60
2019-05-13T09:54:32.882Z,7.90
2019-05-13T09:57:02.251Z,7.77
2019-05-13T09:59:32.040Z,6.33
2019-05-13T10:02:02.922Z,4.97
2019-05-13T10:04:32.008Z,6.07
2019-05-13T10:07:02.397Z,5.95
2019-05-13T10:09:32.894Z,5.83
2019-05-13T10:12:03.325Z,3.62
2019-05-13T10:14:33.149Z,9.48
2019-05-13T10:17:05.952Z,9.93
2019-05-13T10:19:35.187Z,8.53
2019-05-13T10:22:04.096Z,6.95
2019-05-13T10:24:33.228Z,7.15
2019-05-13T10:27:02.782Z,7.22
2019-05-13T10:29:32.463Z,6.37
2019-05-13T10:32:02.759Z,6.22
2019-05-13T10:34:33.068Z,5.65
2019-05-13T10:37:02.727Z,6.00
2019-05-13T10:39:32.004Z,7.42
2019-05-13T10:42:03.658Z,7.37
2019-05-13T10:44:31.555Z,7.30
2019-05-13T10:47:02.485Z,9.68
2019-05-13T10:49:32.994Z,6.90
2019-05-13T10:52:03.074Z,8.20
2019-05-13T10:54:32.646Z,5.97
2019-05-13T10:57:03.882Z,9.83
2019-05-13T10:59:33.466Z,6.12
2019-05-13T11:02:02.492Z,7.33
2019-05-13T11:04:32.606Z,6.33
2019-05-13T11:07:03.024Z,7.20
2019-05-13T11:09:32.837Z,7.37
2019-05-13T11:12:02.343Z,6.25
2019-05-13T11:14:32.345Z,5.97
2019-05-13T11:17:01.897Z,5.25
2019-05-13T11:19:36.094Z,5.22
2019-05-13T11:22:02.745Z,6.58
2019-05-13T11:24:32.435Z,7.55
2019-05-13T11:27:02.724Z,7.28
2019-05-13T11:29:32.650Z,6.08
2019-05-13T11:32:02.757Z,4.95
2019-05-13T11:34:32.931Z,9.08
2019-05-13T11:37:03.702Z,5.50
2019-05-13T11:39:33.129Z,5.40
2019-05-13T11:42:02.514Z,4.95
2019-05-13T11:44:32.414Z,4.55
2019-05-13T11:47:02.322Z,7.35
2019-05-13T11:49:31.921Z,6.42
2019-05-13T11:52:02.680Z,6.03
2019-05-13T11:54:31.425Z,8.60
2019-05-13T11:57:02.610Z,6.25
2019-05-13T11:59:33.011Z,5.72
2019-05-13T12:02:04.600Z,5.83
2019-05-13T12:04:34.426Z,7.42
2019-05-13T12:07:03.611Z,8.20
2019-05-13T12:09:33.331Z,10.13
2019-05-13T12:12:03.256Z,5.53
2019-05-13T12:14:44.372Z,3.92
2019-05-13T12:17:03.407Z,4.85
2019-05-13T12:19:32.561Z,4.72
2019-05-13T12:22:02.619Z,4.80
2019-05-13T12:24:32.144Z,3.60
2019-05-13T12:27:03.548Z,6.25
2019-05-13T12:29:31.491Z,5.72
2019-05-13T12:32:03.042Z,3.33
2019-05-13T12:34:37.721Z,3.08
2019-05-13T12:37:03.207Z,6.15
2019-05-13T12:39:32.233Z,3.40
2019-05-13T12:42:03.364Z,7.42
2019-05-13T12:44:31.937Z,4.75
2019-05-13T12:47:03.329Z,4.60
2019-05-13T12:49:35.518Z,8.68
2019-05-13T12:52:04.616Z,5.15
2019-05-13T12:54:33.110Z,6.97
2019-05-13T12:57:03.668Z,7.58
2019-05-13T12:59:33.782Z,9.45
2019-05-13T13:02:03.445Z,10.30
2019-05-13T13:04:33.836Z,7.62
2019-05-13T13:07:02.792Z,7.33
2019-05-13T13:09:33.533Z,6.72
2019-05-13T13:12:02.869Z,7.67
2019-05-13T13:14:39.118Z,6.22
2019-05-13T13:17:04.766Z,7.53
2019-05-13T13:19:37.862Z,7.87
2019-05-13T13:22:08.251Z,5.60
2019-05-13T13:24:37.222Z,7.87
2019-05-13T13:27:14.752Z,9.33
2019-05-13T13:29:37.635Z,7.92
2019-05-13T13:32:06.727Z,7.45
2019-05-13T13:34:35.683Z,8.18
2019-05-13T13:37:05.170Z,9.80
2019-05-13T13:39:34.354Z,6.45
2019-05-13T13:42:05.398Z,6.15
2019-05-13T13:44:35.221Z,8.45
2019-05-13T13:47:07.534Z,9.23
2019-05-13T13:49:43.685Z,8.70
2019-05-13T13:52:16.048Z,11.20
2019-05-13T13:54:44.217Z,9.18
2019-05-13T13:57:13.948Z,6.22
2019-05-13T14:00:19.292Z,5.83
2019-05-13T14:02:19.105Z,7.87
2019-05-13T14:04:54.209Z,10.30
2019-05-13T14:07:31.653Z,6.10
2019-05-13T14:09:56.406Z,8.85
2019-05-13T14:12:25.291Z,10.98
2019-05-13T14:14:54.387Z,8.08
2019-05-13T14:17:26.156Z,10.30
2019-05-13T14:19:55.176Z,5.72
2019-05-13T14:22:27.467Z,8.30
2019-05-13T14:24:56.524Z,9.05
2019-05-13T14:27:25.458Z,7.37
2019-05-13T14:29:54.465Z,8.50
2019-05-13T14:32:23.741Z,10.75
2019-05-13T14:34:54.463Z,7.05
2019-05-13T14:37:27.878Z,10.15
2019-05-13T14:39:56.938Z,10.50
2019-05-13T14:42:26.125Z,8.40
2019-05-13T14:44:55.308Z,8.18
2019-05-13T14:47:24.159Z,9.13
2019-05-13T14:49:53.009Z,7.33
2019-05-13T14:52:22.398Z,8.03
2019-05-13T14:54:51.999Z,11.78
2019-05-13T14:57:34.280Z,7.30
2019-05-13T15:00:03.216Z,7.37
2019-05-13T15:02:35.616Z,9.85
2019-05-13T15:05:02.956Z,7.47
2019-05-13T15:07:32.343Z,9.93
2019-05-13T15:10:02.399Z,7.80
2019-05-13T15:12:32.511Z,8.35
2019-05-13T15:15:01.638Z,8.83
2019-05-13T15:17:32.499Z,11.75
2019-05-13T15:20:01.987Z,9.18
2019-05-13T15:22:31.826Z,8.45
2019-05-13T15:25:02.742Z,8.48
2019-05-13T15:27:31.809Z,9.10
2019-05-13T15:30:14.402Z,9.28
2019-05-13T15:32:32.580Z,6.33
2019-05-13T15:35:02.408Z,7.90
2019-05-13T15:37:37.865Z,6.70
2019-05-13T15:40:08.228Z,8.23
2019-05-13T15:42:38.087Z,8.88
2019-05-13T15:45:12.286Z,8.23
2019-05-13T15:47:51.655Z,7.45
2019-05-13T15:50:35.848Z,7.20
2019-05-13T15:53:04.863Z,9.10
2019-05-13T15:55:33.669Z,11.30
2019-05-13T15:58:02.589Z,11.97
2019-05-13T16:00:31.392Z,8.05
2019-05-13T16:03:01.615Z,7.50
2019-05-13T16:05:31.282Z,5.72
2019-05-13T16:08:01.441Z,7.67
2019-05-13T16:10:30.744Z,8.18
2019-05-13T16:13:01.739Z,4.40
2019-05-13T16:15:32.147Z,6.55
2019-05-13T16:18:02.550Z,7.35
2019-05-13T16:20:32.139Z,5.78
2019-05-13T16:23:02.332Z,8.18
2019-05-13T16:25:31.936Z,6.37
2019-05-13T16:28:01.316Z,4.92
2019-05-13T16:30:32.032Z,7.83
2019-05-13T16:33:02.804Z,4.50
2019-05-13T16:35:32.078Z,9.85
2019-05-13T16:38:01.837Z,6.20
2019-05-13T16:40:36.205Z,6.85
2019-05-13T16:43:01.471Z,7.20
2019-05-13T16:45:31.578Z,5.60
2019-05-13T16:48:03.885Z,6.70
2019-05-13T16:50:31.442Z,7.78
2019-05-13T16:53:01.896Z,4.90
2019-05-13T16:55:32.795Z,7.25
2019-05-13T16:58:02.087Z,6.33
2019-05-13T17:00:31.872Z,7.42
2019-05-13T17:03:02.288Z,8.13
2019-05-13T17:05:32.643Z,5.05
2019-05-13T17:08:02.211Z,6.33
2019-05-13T17:10:31.616Z,7.50
2019-05-13T17:13:02.999Z,5.45
2019-05-13T17:15:31.564Z,6.70
2019-05-13T17:18:09.159Z,6.25
2019-05-13T17:20:32.102Z,7.08
2019-05-13T17:23:01.820Z,3.67
2019-05-13T17:25:30.707Z,6.78
2019-05-13T17:28:02.504Z,4.53
2019-05-13T17:30:31.950Z,5.90
2019-05-13T17:33:02.310Z,4.62
2019-05-13T17:35:34.443Z,4.42
2019-05-13T17:38:03.318Z,4.70
2019-05-13T17:40:32.228Z,4.20
2019-05-13T17:43:01.059Z,4.42
2019-05-13T17:45:31.290Z,4.20
2019-05-13T17:48:01.106Z,6.95
2019-05-13T17:50:31.522Z,5.45
2019-05-13T17:53:02.055Z,3.70
2019-05-13T17:55:31.351Z,2.80
2019-05-13T17:58:01.440Z,4.30
2019-05-13T18:00:32.289Z,2.75
2019-05-13T18:03:01.851Z,5.17
2019-05-13T18:05:31.540Z,2.92
2019-05-13T18:09:43.923Z,3.80
2019-05-13T18:20:03.695Z,3.30
2019-05-13T18:23:06.842Z,4.10
2019-05-13T18:26:24.685Z,3.90
2019-05-13T18:32:51.778Z,3.02
2019-05-13T18:35:23.564Z,3.30
2019-05-13T18:37:56.036Z,4.20
2019-05-13T18:40:31.520Z,4.60
2019-05-13T18:43:01.897Z,6.20
2019-05-13T18:45:31.397Z,4.20
2019-05-13T18:48:06.407Z,3.83
2019-05-13T18:50:41.904Z,6.43
2019-05-13T18:53:15.097Z,3.87
2019-05-13T18:55:44.551Z,4.33
2019-05-13T18:58:28.045Z,2.63
2019-05-13T19:01:03.656Z,2.83
2019-05-13T19:03:33.022Z,4.23
2019-05-13T19:06:02.159Z,4.50
2019-05-13T19:08:34.408Z,5.17
2019-05-13T19:11:03.571Z,4.63
2019-05-13T19:13:32.875Z,4.40
2019-05-13T19:16:05.525Z,7.07
2019-05-13T19:18:37.355Z,3.70
2019-05-13T19:21:06.709Z,4.10
2019-05-13T19:23:37.851Z,5.60
2019-05-13T19:26:30.275Z,5.17
2019-05-13T19:29:11.523Z,6.50
2019-05-13T19:31:43.383Z,3.57
2019-05-13T19:34:28.205Z,2.70
2019-05-13T19:37:52.328Z,3.17
2019-05-13T19:40:27.678Z,5.27
2019-05-13T19:43:01.591Z,4.40
2019-05-13T19:46:18.796Z,4.07
2019-05-13T19:49:09.421Z,4.10
2019-05-13T19:55:12.157Z,4.83
2019-05-13T19:58:17.046Z,2.43
2019-05-13T20:02:09.164Z,4.10
2019-05-13T20:03:51.534Z,3.63
2019-05-13T20:09:52.013Z,3.60
2019-05-13T20:13:21.738Z,3.33
2019-05-13T20:15:31.369Z,3.27
2019-05-13T20:18:05.280Z,2.73
2019-05-13T20:20:57.642Z,2.77
2019-05-13T20:23:26.732Z,2.57
2019-05-13T20:25:56.173Z,4.40
2019-05-13T20:28:25.183Z,4.17
2019-05-13T20:30:54.165Z,5.10
2019-05-13T20:33:23.149Z,3.13
2019-05-13T20:35:52.065Z,3.23
2019-05-13T20:38:22.187Z,4.37
2019-05-13T20:40:51.951Z,3.57
2019-05-13T20:43:22.470Z,3.10
2019-05-13T20:45:51.917Z,4.00
2019-05-13T20:48:21.289Z,4.70
2019-05-13T20:50:51.933Z,5.17
2019-05-13T20:53:21.787Z,4.23
2019-05-13T20:55:52.052Z,5.17
2019-05-13T20:58:21.492Z,4.20
2019-05-13T21:00:52.296Z,4.33
2019-05-13T21:03:22.143Z,6.80
2019-05-13T21:05:52.510Z,5.30
2019-05-13T21:08:24.499Z,3.90
2019-05-13T21:10:53.528Z,4.57
2019-05-13T21:13:23.333Z,8.27
2019-05-13T21:15:52.637Z,4.23
2019-05-13T21:18:22.134Z,6.07
2019-05-13T21:20:52.121Z,3.53
2019-05-13T21:23:21.787Z,4.93
2019-05-13T21:25:52.227Z,7.07
2019-05-13T21:28:22.099Z,5.00
2019-05-13T21:30:52.717Z,5.07
2019-05-13T21:33:22.542Z,7.53
2019-05-13T21:35:52.685Z,6.07
2019-05-13T21:38:22.365Z,6.20
2019-05-13T21:40:52.241Z,4.37
2019-05-13T21:43:21.691Z,5.57
2019-05-13T21:45:52.263Z,4.83
2019-05-13T21:48:21.908Z,7.73
2019-05-13T21:50:51.586Z,6.57
2019-05-13T21:53:24.161Z,7.63
2019-05-13T21:55:52.118Z,8.80
2019-05-13T21:58:22.270Z,8.23
2019-05-13T22:00:52.886Z,7.27
2019-05-13T22:03:21.939Z,7.47
2019-05-13T22:05:51.648Z,6.63
2019-05-13T22:08:21.566Z,8.93
2019-05-13T22:10:52.494Z,10.00
2019-05-13T22:13:21.877Z,7.07
2019-05-13T22:15:52.353Z,6.43
2019-05-13T22:18:21.481Z,7.60
2019-05-13T22:20:53.573Z,11.33
2019-05-13T22:23:21.372Z,9.27
2019-05-13T22:25:51.922Z,7.77
2019-05-13T22:28:22.105Z,7.20
2019-05-13T22:30:51.776Z,7.27
2019-05-13T22:33:21.687Z,6.20
2019-05-13T22:35:52.697Z,7.70
2019-05-13T22:38:21.623Z,7.27
2019-05-13T22:40:52.103Z,7.40
2019-05-13T22:43:21.325Z,8.40
2019-05-13T22:45:51.143Z,5.37
2019-05-13T22:48:22.295Z,8.53
2019-05-13T22:50:52.161Z,8.30
2019-05-13T22:53:21.279Z,8.33
2019-05-13T22:55:52.134Z,6.60
2019-05-13T22:58:22.524Z,6.57
2019-05-13T23:00:52.034Z,9.77
2019-05-13T23:03:20.958Z,7.37
2019-05-13T23:05:52.064Z,7.30
2019-05-13T23:08:21.747Z,6.97
2019-05-13T23:10:51.461Z,10.47
2019-05-13T23:13:23.750Z,11.77
2019-05-13T23:15:53.040Z,8.57
2019-05-13T23:18:22.270Z,7.50
2019-05-13T23:20:51.807Z,7.27
2019-05-13T23:23:22.125Z,8.40
2019-05-13T23:25:51.517Z,10.63
2019-05-13T23:28:21.679Z,7.50
2019-05-13T23:30:51.218Z,8.10
2019-05-13T23:33:21.979Z,9.27
2019-05-13T23:35:51.180Z,10.20
2019-05-13T23:38:21.443Z,8.60
2019-05-13T23:40:51.558Z,8.73
2019-05-13T23:43:21.753Z,10.07
2019-05-13T23:45:51.287Z,8.53
2019-05-13T23:48:21.583Z,8.20
2019-05-13T23:50:52.148Z,7.67
2019-05-13T23:53:22.037Z,8.47
2019-05-13T23:55:51.977Z,6.57
2019-05-13T23:58:21.882Z,8.97
